Time;durP1;ratioP1;P1;durP2;ratioP2;P2;SDS_P1;SDS_P2;PMS_P1;PMS_P2;Temp;Humidity;BMP_temperature;BMP_pressure;BME280_temperature;BME280_humidity;BME280_pressure;Samples;Min_cycle;Max_cycle;Signal;HPM_P1;HPM_P2
2022/06/26 00:00:15;;;;;;;;;5.00;5.00;;;;;16.45;80.98;100887.00;4979995;28;45324;-74
2022/06/26 00:02:41;;;;;;;;;5.67;5.00;;;;;16.41;80.92;100884.75;4979594;28;45359;-74
2022/06/26 00:05:07;;;;;;;;;8.33;7.00;;;;;16.43;81.13;100886.41;4979887;28;45307;-74
2022/06/26 00:07:34;;;;;;;;;6.33;6.33;;;;;16.39;80.89;100894.03;4979757;28;45381;-74
2022/06/26 00:09:59;;;;;;;;;6.33;5.67;;;;;16.33;81.73;100901.06;4979296;28;45296;-74
2022/06/26 00:12:25;;;;;;;;;5.00;5.00;;;;;16.35;81.28;100906.22;4979648;28;46353;-74
2022/06/26 00:14:50;;;;;;;;;7.33;5.67;;;;;16.29;81.42;100907.88;4978292;28;45261;-74
2022/06/26 00:17:16;;;;;;;;;7.00;6.67;;;;;16.28;81.55;100908.91;4985729;28;45340;-74
2022/06/26 00:19:42;;;;;;;;;3.00;3.00;;;;;16.31;81.38;100913.03;4979660;28;45382;-74
2022/06/26 00:22:08;;;;;;;;;4.67;4.00;;;;;16.26;81.33;100911.78;4979441;28;46373;-74
2022/06/26 00:24:34;;;;;;;;;5.00;5.00;;;;;16.31;81.40;100911.16;4979545;28;45352;-74
2022/06/26 00:27:02;;;;;;;;;5.67;4.67;;;;;16.27;81.77;100907.25;4974835;28;45396;-74
2022/06/26 00:29:31;;;;;;;;;5.33;5.33;;;;;16.27;81.82;100915.31;4970582;28;45466;-74
2022/06/26 00:31:57;;;;;;;;;3.33;3.33;;;;;16.21;81.98;100903.56;4979322;28;45454;-74
2022/06/26 00:34:22;;;;;;;;;3.67;3.33;;;;;16.23;82.10;100912.22;4979291;28;45244;-74
2022/06/26 00:36:48;;;;;;;;;4.00;4.00;;;;;16.20;82.12;100901.91;4975103;28;45499;-74
2022/06/26 00:39:13;;;;;;;;;3.33;3.33;;;;;16.18;82.17;100895.94;4976069;28;45324;-74
2022/06/26 00:41:39;;;;;;;;;4.00;3.00;;;;;16.15;82.30;100890.97;4979506;28;46646;-74
2022/06/26 00:44:16;;;;;;;;;4.00;4.00;;;;;16.14;82.42;100897.38;4975687;28;45323;-74
2022/06/26 00:46:42;;;;;;;;;3.67;3.67;;;;;16.13;82.19;100888.50;4979180;28;45376;-74
2022/06/26 00:49:07;;;;;;;;;1.67;1.67;;;;;16.16;82.36;100897.97;4982397;28;45523;-74
2022/06/26 00:51:34;;;;;;;;;4.67;3.67;;;;;16.17;82.25;100898.81;4982832;28;46123;-74
2022/06/26 00:53:59;;;;;;;;;2.67;2.67;;;;;16.15;82.24;100899.03;4982494;28;45213;-74
2022/06/26 00:56:25;;;;;;;;;3.00;3.00;;;;;16.15;82.24;100901.72;4982683;28;45181;-74
2022/06/26 00:58:50;;;;;;;;;2.33;2.33;;;;;16.12;82.05;100902.97;4982776;28;45411;-74
2022/06/26 01:01:15;;;;;;;;;3.00;2.00;;;;;16.12;82.24;100908.31;4982277;28;45321;-74
2022/06/26 01:03:41;;;;;;;;;2.00;2.00;;;;;16.11;82.21;100921.94;4982774;28;45165;-74
2022/06/26 01:06:07;;;;;;;;;2.00;2.00;;;;;16.07;82.39;100918.81;4981162;28;45464;-74
2022/06/26 01:08:34;;;;;;;;;2.00;2.00;;;;;16.07;82.63;100923.38;4981911;28;45290;-74
2022/06/26 01:11:01;;;;;;;;;2.67;2.67;;;;;16.05;82.81;100925.44;4982435;28;45468;-74
2022/06/26 01:13:27;;;;;;;;;2.67;2.67;;;;;16.05;82.80;100915.53;4982260;28;45315;-74
2022/06/26 01:15:53;;;;;;;;;2.00;2.00;;;;;16.06;82.58;100909.13;4984907;28;45290;-74
2022/06/26 01:18:19;;;;;;;;;3.67;3.67;;;;;16.08;82.50;100900.88;4985045;28;45340;-74
2022/06/26 01:20:45;;;;;;;;;4.00;4.00;;;;;16.06;82.67;100900.25;4982141;28;46294;-74
2022/06/26 01:23:10;;;;;;;;;2.33;2.33;;;;;16.00;82.50;100888.53;4981957;28;45679;-74
2022/06/26 01:25:47;;;;;;;;;2.00;2.00;;;;;16.05;82.95;100915.53;4981017;28;45330;-74
2022/06/26 01:28:13;;;;;;;;;1.00;1.00;;;;;16.02;82.58;100914.06;4978013;28;46051;-74
2022/06/26 01:30:39;;;;;;;;;4.33;3.33;;;;;15.99;82.69;100911.84;4982012;28;45344;-74
2022/06/26 01:33:06;;;;;;;;;3.67;3.67;;;;;15.99;82.60;100917.19;4980670;28;45401;-74
2022/06/26 01:35:32;;;;;;;;;2.33;2.33;;;;;15.98;82.95;100914.72;4980800;28;45671;-75
2022/06/26 01:38:12;;;;;;;;;2.00;2.00;;;;;15.96;82.91;100912.25;4981664;28;45502;-74
2022/06/26 01:40:38;;;;;;;;;3.33;2.00;;;;;15.98;82.91;100918.22;4981838;28;45263;-74
2022/06/26 01:43:03;;;;;;;;;3.33;2.67;;;;;16.00;82.89;100913.47;4997007;28;45393;-74
2022/06/26 01:45:28;;;;;;;;;2.00;2.00;;;;;16.00;82.70;100918.00;4981858;28;45527;-74
2022/06/26 01:47:54;;;;;;;;;3.67;3.00;;;;;16.00;82.65;100932.25;4981681;28;45567;-74
2022/06/26 01:50:20;;;;;;;;;2.33;2.00;;;;;15.96;82.46;100922.97;4981839;28;45487;-74
2022/06/26 01:52:45;;;;;;;;;2.33;2.33;;;;;15.96;82.47;100922.97;4981500;28;45313;-74
2022/06/26 01:55:11;;;;;;;;;5.00;4.00;;;;;15.95;82.76;100918.59;4977393;28;45304;-74
2022/06/26 01:57:36;;;;;;;;;3.00;3.00;;;;;15.91;82.50;100909.31;4976412;28;45390;-75
2022/06/26 02:00:04;;;;;;;;;3.00;3.00;;;;;15.96;82.29;100912.25;4979374;28;48317;-74
2022/06/26 02:02:30;;;;;;;;;1.00;1.00;;;;;15.90;82.53;100907.66;4981747;28;45381;-74
2022/06/26 02:04:55;;;;;;;;;2.00;2.00;;;;;15.93;82.46;100914.47;4976873;28;45368;-74
2022/06/26 02:07:20;;;;;;;;;3.00;3.00;;;;;15.91;82.63;100928.06;4972301;28;45390;-74
2022/06/26 02:15:13;;;;;;;;;4.33;4.33;;;;;15.87;82.98;100916.13;4981440;28;45504;-77
2022/06/26 02:17:39;;;;;;;;;3.00;3.00;;;;;15.84;82.75;100900.44;4986773;28;45435;-77
2022/06/26 02:20:05;;;;;;;;;3.00;3.00;;;;;15.88;82.77;100907.03;4981202;28;45426;-74
2022/06/26 02:22:31;;;;;;;;;4.00;4.00;;;;;15.83;82.93;100906.84;4976580;28;46029;-74
2022/06/26 02:24:56;;;;;;;;;2.00;1.00;;;;;15.88;83.10;100913.25;4976936;28;45325;-74
2022/06/26 02:27:22;;;;;;;;;1.33;1.33;;;;;15.88;83.33;100921.28;4981301;28;45459;-74
2022/06/26 02:29:48;;;;;;;;;4.00;4.00;;;;;15.85;83.13;100923.53;4976664;28;47966;-76
2022/06/26 02:32:13;;;;;;;;;3.00;3.00;;;;;15.87;83.29;100938.38;4980591;28;45359;-76
2022/06/26 02:34:38;;;;;;;;;3.00;3.00;;;;;15.89;83.45;100936.31;4979866;28;45909;-76
2022/06/26 02:37:04;;;;;;;;;5.00;4.00;;;;;15.88;83.59;100940.03;4980841;28;46608;-76
2022/06/26 02:39:29;;;;;;;;;4.67;3.00;;;;;15.86;83.41;100909.94;4980846;28;45469;-76
2022/06/26 02:41:54;;;;;;;;;3.00;2.00;;;;;15.92;83.71;100908.28;4976471;28;45690;-77
2022/06/26 02:44:21;;;;;;;;;6.33;4.00;;;;;15.92;83.22;100910.94;4977086;28;45439;-76
2022/06/26 02:46:47;;;;;;;;;3.33;3.33;;;;;15.93;83.17;100915.31;4980706;28;45308;-76
2022/06/26 02:49:12;;;;;;;;;4.00;3.00;;;;;15.98;83.32;100922.75;4980832;28;46441;-76
2022/06/26 02:51:37;;;;;;;;;4.67;4.00;;;;;15.98;83.41;100920.88;4980962;28;45412;-76
2022/06/26 02:54:03;;;;;;;;;3.00;2.33;;;;;15.94;83.31;100927.66;4979458;28;45297;-77
2022/06/26 02:56:28;;;;;;;;;2.67;2.67;;;;;15.94;83.50;100930.34;4980732;28;46103;-76
2022/06/26 02:58:54;;;;;;;;;4.67;4.67;;;;;15.97;83.31;100915.72;4980829;28;46581;-76
2022/06/26 03:01:19;;;;;;;;;4.67;4.00;;;;;15.97;83.36;100908.53;4980708;28;45232;-76
2022/06/26 03:03:44;;;;;;;;;2.67;2.67;;;;;16.01;83.58;100920.47;4980966;28;45212;-76
2022/06/26 03:06:10;;;;;;;;;2.33;2.33;;;;;15.98;83.71;100918.22;4980532;28;45448;-76
2022/06/26 03:08:35;;;;;;;;;3.67;3.00;;;;;16.00;83.50;100908.13;4980275;28;45328;-76
2022/06/26 03:11:00;;;;;;;;;5.00;5.00;;;;;16.07;83.86;100920.69;4980330;28;50447;-76
2022/06/26 03:13:25;;;;;;;;;6.33;4.00;;;;;16.08;83.93;100938.44;4976128;28;45173;-76
2022/06/26 03:15:51;;;;;;;;;2.33;2.33;;;;;16.10;83.54;100929.13;4973507;28;45543;-76
2022/06/26 03:18:16;;;;;;;;;3.00;3.00;;;;;16.14;83.63;100942.97;4981618;28;48466;-76
2022/06/26 03:20:41;;;;;;;;;3.33;3.33;;;;;16.13;83.49;100950.16;4975924;28;45309;-76
2022/06/26 03:23:07;;;;;;;;;3.67;3.67;;;;;16.17;83.49;100947.91;4974967;28;45226;-76
2022/06/26 03:25:32;;;;;;;;;3.00;3.00;;;;;16.16;83.79;100935.53;4975851;28;46527;-76
2022/06/26 03:27:57;;;;;;;;;1.00;1.00;;;;;16.17;83.55;100934.50;4972924;28;46445;-77
2022/06/26 03:30:23;;;;;;;;;6.00;4.67;;;;;16.18;83.14;100941.50;4980251;28;45646;-76
2022/06/26 03:32:48;;;;;;;;;3.33;3.33;;;;;16.20;83.10;100952.88;4980457;28;45298;-76
2022/06/26 03:35:14;;;;;;;;;5.00;4.00;;;;;16.16;83.55;100948.94;4978760;28;52847;-76
2022/06/26 03:37:39;;;;;;;;;6.00;4.00;;;;;16.19;83.80;100948.50;4978396;28;48340;-76
2022/06/26 03:40:05;;;;;;;;;2.67;2.67;;;;;16.22;83.58;100948.09;4980113;28;45500;-76
2022/06/26 03:42:30;;;;;;;;;5.67;5.33;;;;;16.25;83.53;100944.22;4980220;28;45350;-76
2022/06/26 03:44:56;;;;;;;;;4.00;2.00;;;;;16.24;83.32;100938.00;4980084;28;45339;-77
2022/06/26 03:47:21;;;;;;;;;4.67;4.67;;;;;16.22;83.37;100923.97;4979908;28;45681;-76
2022/06/26 03:49:46;;;;;;;;;4.00;4.00;;;;;16.24;83.31;100948.72;4978724;28;45460;-76
2022/06/26 03:52:12;;;;;;;;;6.33;4.00;;;;;16.23;83.32;100956.97;4980004;28;46025;-76
2022/06/26 03:54:37;;;;;;;;;3.00;3.00;;;;;16.26;83.23;100965.41;4979728;28;45418;-76
2022/06/26 03:57:03;;;;;;;;;4.00;4.00;;;;;16.22;83.66;100960.72;4980025;28;45525;-77
2022/06/26 03:59:29;;;;;;;;;4.00;4.00;;;;;16.25;83.45;100962.97;4978662;28;45309;-76
2022/06/26 04:01:55;;;;;;;;;4.00;4.00;;;;;16.27;83.24;100979.66;4980093;28;45519;-76
2022/06/26 04:04:20;;;;;;;;;3.00;3.00;;;;;16.31;83.42;100988.13;4978571;28;46063;-76
2022/06/26 04:06:45;;;;;;;;;5.33;4.00;;;;;16.25;83.27;100962.97;4979684;28;45501;-76
2022/06/26 04:09:11;;;;;;;;;2.33;2.33;;;;;16.25;83.14;100962.97;4979465;28;45259;-76
2022/06/26 04:11:36;;;;;;;;;3.67;3.00;;;;;16.23;83.08;100965.03;4979762;28;45264;-76
2022/06/26 04:14:02;;;;;;;;;4.33;3.33;;;;;16.19;83.20;100972.66;4979911;28;45383;-76
2022/06/26 04:16:27;;;;;;;;;3.00;2.00;;;;;16.23;83.20;100987.31;4984909;28;46113;-77
2022/06/26 04:18:53;;;;;;;;;4.00;4.00;;;;;16.19;83.10;100994.09;4979754;28;45537;-76
2022/06/26 04:21:18;;;;;;;;;4.00;4.00;;;;;16.15;82.91;100992.88;4979967;28;45441;-76
2022/06/26 04:23:44;;;;;;;;;4.33;4.33;;;;;16.11;83.11;100989.78;4981913;28;45318;-76
2022/06/26 04:26:09;;;;;;;;;5.00;4.00;;;;;16.10;83.31;100987.31;4983084;28;45364;-76
2022/06/26 04:28:34;;;;;;;;;4.67;3.00;;;;;16.15;83.32;100992.88;4983042;28;45289;-77
2022/06/26 04:31:00;;;;;;;;;4.33;4.00;;;;;16.16;83.31;100994.50;4983340;28;45364;-76
2022/06/26 04:33:25;;;;;;;;;2.33;2.33;;;;;16.15;83.37;100996.38;4983099;28;45304;-76
2022/06/26 04:35:51;;;;;;;;;4.33;4.33;;;;;16.18;83.55;101002.34;4986062;28;45398;-76
2022/06/26 04:38:16;;;;;;;;;4.00;4.00;;;;;16.24;83.57;101013.09;4993289;28;45386;-76
2022/06/26 04:40:41;;;;;;;;;5.00;4.00;;;;;16.27;83.58;101015.38;4983092;28;45368;-76
2022/06/26 04:43:08;;;;;;;;;4.00;4.00;;;;;16.31;83.36;101017.63;4983101;28;45380;-76
2022/06/26 04:45:33;;;;;;;;;5.33;5.33;;;;;16.32;83.57;101016.59;4982810;28;46133;-76
2022/06/26 04:47:59;;;;;;;;;5.00;4.00;;;;;16.36;83.28;101015.97;4982629;28;45276;-76
2022/06/26 04:50:24;;;;;;;;;5.00;4.00;;;;;16.40;83.38;101019.91;4982918;28;45254;-76
2022/06/26 04:52:49;;;;;;;;;6.33;5.33;;;;;16.43;83.29;101021.34;4982314;28;45588;-76
2022/06/26 04:55:15;;;;;;;;;3.33;3.33;;;;;16.50;83.26;101032.06;4982696;28;45281;-76
2022/06/26 04:57:41;;;;;;;;;3.00;3.00;;;;;16.49;83.13;101025.06;4982690;28;45216;-77
2022/06/26 05:00:10;;;;;;;;;5.00;3.00;;;;;16.51;82.84;101029.19;4978066;28;45234;-76
2022/06/26 05:02:36;;;;;;;;;4.00;4.00;;;;;16.52;83.33;101030.84;4975741;28;45885;-76
2022/06/26 05:05:02;;;;;;;;;5.00;4.00;;;;;16.56;83.41;101025.88;4982280;28;46139;-76
2022/06/26 05:07:28;;;;;;;;;3.33;3.33;;;;;16.58;83.39;101023.00;4982156;28;45340;-76
2022/06/26 05:09:53;;;;;;;;;5.33;4.67;;;;;16.61;83.31;101033.31;4980884;28;45278;-76
2022/06/26 05:12:19;;;;;;;;;4.00;4.00;;;;;16.66;83.39;101037.03;4982462;28;45304;-76
2022/06/26 05:14:44;;;;;;;;;3.67;3.67;;;;;16.71;83.25;101028.34;4982157;28;45552;-76
2022/06/26 05:17:10;;;;;;;;;5.33;4.67;;;;;16.77;83.49;101022.13;4987818;28;45226;-76
2022/06/26 05:19:35;;;;;;;;;6.67;5.00;;;;;16.87;83.17;101031.63;4977907;28;45365;-76
2022/06/26 05:22:02;;;;;;;;;5.00;4.33;;;;;16.89;82.85;101024.19;4981425;28;45446;-76
2022/06/26 05:24:29;;;;;;;;;5.33;5.33;;;;;16.95;82.81;101031.41;4982169;28;45289;-76
2022/06/26 05:26:56;;;;;;;;;6.33;4.00;;;;;16.97;82.91;101033.88;4981929;28;45336;-76
2022/06/26 05:29:22;;;;;;;;;5.00;5.00;;;;;17.00;82.47;101039.66;4980978;28;45317;-76
2022/06/26 05:31:47;;;;;;;;;7.00;5.33;;;;;17.01;82.57;101035.94;4976759;28;45506;-76
2022/06/26 05:34:12;;;;;;;;;6.67;5.00;;;;;17.07;82.27;101042.34;4964410;28;47981;-76
2022/06/26 05:36:38;;;;;;;;;5.00;4.00;;;;;17.06;82.60;101039.84;4972189;28;45256;-76
2022/06/26 05:39:03;;;;;;;;;5.33;5.33;;;;;17.11;82.57;101040.06;4981829;28;45277;-77
2022/06/26 05:41:28;;;;;;;;;4.00;4.00;;;;;17.15;82.30;101041.31;4979199;28;45514;-76
2022/06/26 05:43:54;;;;;;;;;4.00;4.00;;;;;17.13;81.98;101046.06;4978671;28;47142;-76
2022/06/26 05:46:19;;;;;;;;;5.67;5.67;;;;;17.11;81.59;101048.13;4980673;28;45352;-75
2022/06/26 05:48:45;;;;;;;;;6.00;5.00;;;;;17.13;81.91;101056.78;4980102;28;45298;-74
2022/06/26 05:51:10;;;;;;;;;4.33;4.33;;;;;17.15;82.44;101049.38;4980632;28;46089;-74
2022/06/26 05:53:37;;;;;;;;;3.00;3.00;;;;;17.18;81.74;101051.59;4979037;28;47630;-75
2022/06/26 05:56:03;;;;;;;;;4.67;4.67;;;;;17.23;81.84;101046.44;4981743;28;45368;-75
2022/06/26 05:58:29;;;;;;;;;5.67;4.00;;;;;17.25;81.73;101049.75;4976028;28;45348;-75
2022/06/26 06:00:54;;;;;;;;;5.00;5.00;;;;;17.28;81.97;101049.31;4970951;28;45407;-76
2022/06/26 06:03:19;;;;;;;;;6.00;5.00;;;;;17.32;81.04;101051.56;4981793;28;45483;-76
2022/06/26 06:05:45;;;;;;;;;10.00;6.00;;;;;17.36;80.91;101056.31;4981455;28;45427;-76
2022/06/26 06:08:11;;;;;;;;;4.00;4.00;;;;;17.42;81.13;101049.28;4976661;28;45355;-76
2022/06/26 06:10:36;;;;;;;;;3.00;3.00;;;;;17.52;81.12;101055.03;4976422;28;46145;-75
2022/06/26 06:13:02;;;;;;;;;5.00;5.00;;;;;17.56;80.99;101046.50;4981326;28;46566;-73
2022/06/26 06:15:27;;;;;;;;;2.67;2.67;;;;;17.61;80.55;101050.22;4981316;28;45335;-75
2022/06/26 06:17:53;;;;;;;;;4.33;4.33;;;;;17.66;80.57;101041.53;4994105;28;45461;-75
2022/06/26 06:20:20;;;;;;;;;4.67;4.67;;;;;17.72;80.53;101054.09;4981349;28;45417;-75
2022/06/26 06:22:53;;;;;;;;;7.00;6.00;;;;;17.76;79.57;101052.63;4980931;28;46441;-73
2022/06/26 06:25:19;;;;;;;;;5.00;5.00;;;;;17.79;79.69;101057.59;4977547;28;45367;-73
2022/06/26 06:27:45;;;;;;;;;7.33;6.00;;;;;17.86;79.26;101062.91;4973200;28;45284;-73
2022/06/26 06:30:12;;;;;;;;;5.00;5.00;;;;;17.85;79.37;101061.28;4976004;28;45271;-73
2022/06/26 06:32:37;;;;;;;;;2.00;2.00;;;;;17.92;79.39;101069.28;4980336;28;45427;-73
2022/06/26 06:35:03;;;;;;;;;4.33;4.33;;;;;17.92;79.76;101066.59;4971369;28;45358;-74
2022/06/26 06:37:29;;;;;;;;;5.00;4.00;;;;;18.03;79.44;101076.69;4977759;28;45397;-73
2022/06/26 06:39:54;;;;;;;;;5.67;4.33;;;;;18.05;78.79;101071.91;4981112;28;45316;-73
2022/06/26 06:42:20;;;;;;;;;4.33;4.33;;;;;18.14;79.45;101088.63;4980800;28;47072;-73
2022/06/26 06:44:45;;;;;;;;;5.00;5.00;;;;;18.22;78.75;101094.78;4981009;28;45361;-74
2022/06/26 06:47:14;;;;;;;;;7.33;6.00;;;;;18.23;78.81;101093.75;4981686;28;45358;-76
2022/06/26 06:49:40;;;;;;;;;3.67;3.67;;;;;18.28;78.62;101092.06;4980951;28;45379;-76
2022/06/26 06:52:07;;;;;;;;;5.00;4.67;;;;;18.35;78.93;101096.59;4980603;28;45341;-75
2022/06/26 06:54:33;;;;;;;;;4.00;4.00;;;;;18.40;78.58;101102.13;4980771;28;45769;-75
2022/06/26 06:56:58;;;;;;;;;3.33;3.00;;;;;18.42;77.66;101094.66;4980990;28;45343;-75
2022/06/26 06:59:24;;;;;;;;;4.67;4.33;;;;;18.42;77.83;101091.97;4980796;28;45359;-74
2022/06/26 07:01:50;;;;;;;;;4.33;3.33;;;;;18.49;77.52;101106.19;4980585;28;46139;-74
2022/06/26 07:04:15;;;;;;;;;4.67;4.00;;;;;18.51;77.75;101097.91;4978997;28;45582;-74
2022/06/26 07:06:41;;;;;;;;;6.67;6.00;;;;;18.54;77.36;101095.63;4979262;28;45486;-75
2022/06/26 07:09:06;;;;;;;;;5.00;5.00;;;;;18.55;76.87;101091.03;4977437;28;45866;-76
2022/06/26 07:11:32;;;;;;;;;5.67;5.33;;;;;18.58;76.73;101105.94;4978907;28;46477;-76
2022/06/26 07:13:58;;;;;;;;;5.00;5.00;;;;;18.57;77.05;101110.50;4979062;28;45326;-73
2022/06/26 07:16:24;;;;;;;;;5.33;5.33;;;;;18.63;77.18;101103.41;4979735;28;45325;-74
2022/06/26 07:18:49;;;;;;;;;5.33;4.67;;;;;18.79;77.00;101104.72;4979086;28;45589;-75
2022/06/26 07:21:14;;;;;;;;;4.67;4.67;;;;;18.85;76.34;101106.53;4978808;28;45766;-75
2022/06/26 07:23:40;;;;;;;;;6.33;5.00;;;;;18.96;76.31;101109.53;4978714;28;45562;-75
2022/06/26 07:26:05;;;;;;;;;6.67;6.00;;;;;19.00;75.92;101108.88;4977376;28;45373;-75
2022/06/26 07:28:31;;;;;;;;;4.67;4.67;;;;;19.11;75.69;101109.22;4978807;28;45309;-75
2022/06/26 07:30:56;;;;;;;;;5.00;5.00;;;;;19.05;74.91;101106.34;4977676;28;47344;-73
2022/06/26 07:36:05;;;;;;;;;5.00;5.00;;;;;19.18;75.41;101120.75;4980144;28;45311;-75
2022/06/26 07:38:31;;;;;;;;;5.33;5.33;;;;;19.26;75.15;101119.63;4979879;28;45456;-75
2022/06/26 07:40:58;;;;;;;;;5.67;5.67;;;;;19.32;74.74;101120.59;4980046;28;45510;-76
2022/06/26 07:43:23;;;;;;;;;4.67;3.33;;;;;19.32;74.12;101126.84;4980257;28;45269;-76
2022/06/26 07:45:49;;;;;;;;;5.00;4.00;;;;;19.33;73.99;101130.34;4963873;28;45509;-74
2022/06/26 07:48:15;;;;;;;;;2.00;2.00;;;;;19.41;73.86;101141.66;4975508;28;45866;-73
2022/06/26 07:50:40;;;;;;;;;6.00;6.00;;;;;19.51;73.43;101137.59;4974327;28;46141;-73
2022/06/26 07:53:06;;;;;;;;;5.33;5.00;;;;;19.55;73.40;101139.63;4976620;28;46128;-74
2022/06/26 07:55:31;;;;;;;;;5.00;4.00;;;;;19.59;73.01;101144.56;4980346;28;45306;-74
2022/06/26 07:57:56;;;;;;;;;4.00;4.00;;;;;19.64;72.84;101142.84;4979027;28;45548;-74
2022/06/26 08:00:22;;;;;;;;;6.00;5.00;;;;;19.68;73.31;101145.91;4979544;28;46380;-74
2022/06/26 08:02:47;;;;;;;;;5.67;3.67;;;;;19.73;72.76;101134.47;4979921;28;45495;-74
2022/06/26 08:05:13;;;;;;;;;5.67;5.00;;;;;19.81;72.67;101148.47;4979821;28;45324;-74
2022/06/26 08:07:38;;;;;;;;;4.00;4.00;;;;;19.90;72.05;101148.13;4979412;28;45332;-72
2022/06/26 08:10:04;;;;;;;;;7.00;5.00;;;;;19.99;72.39;101141.38;4978707;28;45387;-73
2022/06/26 08:12:30;;;;;;;;;4.00;4.00;;;;;20.07;72.14;101132.19;4979266;28;45196;-73
2022/06/26 08:14:55;;;;;;;;;5.33;4.00;;;;;20.10;71.44;101118.25;4978330;28;45238;-74
2022/06/26 08:17:21;;;;;;;;;5.00;5.00;;;;;20.17;71.38;101118.97;4988951;28;45320;-73
2022/06/26 08:19:47;;;;;;;;;5.00;5.00;;;;;20.18;69.73;101120.59;4979660;28;46598;-73
2022/06/26 08:22:13;;;;;;;;;3.67;3.67;;;;;20.26;69.41;101129.44;4977319;28;46179;-74
2022/06/26 08:24:41;;;;;;;;;6.00;6.00;;;;;20.31;69.20;101126.88;4979432;28;45434;-73
2022/06/26 08:27:07;;;;;;;;;3.00;2.00;;;;;20.37;68.20;101125.94;4974865;28;46058;-73
2022/06/26 08:29:32;;;;;;;;;6.33;6.00;;;;;20.45;68.77;101122.09;4976347;28;47040;-74
2022/06/26 08:31:58;;;;;;;;;0.33;0.00;;;;;20.46;68.34;101125.59;4979537;28;45408;-74
2022/06/26 08:34:23;;;;;;;;;4.00;3.33;;;;;20.47;68.65;101111.88;4979234;28;45322;-74
2022/06/26 08:36:49;;;;;;;;;4.00;4.00;;;;;20.62;68.83;101124.13;4979459;28;45284;-74
2022/06/26 08:39:14;;;;;;;;;4.33;3.33;;;;;20.68;68.85;101117.78;4974635;28;47258;-73
2022/06/26 08:41:45;;;;;;;;;6.00;4.67;;;;;20.75;68.39;101118.50;4979077;28;45482;-73
2022/06/26 08:44:11;;;;;;;;;5.00;4.00;;;;;20.82;68.69;101115.69;4975814;28;45386;-74
2022/06/26 08:46:44;;;;;;;;;4.00;2.00;;;;;20.88;66.86;101108.50;4970748;28;45368;-73
2022/06/26 08:49:12;;;;;;;;;2.33;2.00;;;;;20.87;66.31;101101.47;4975692;28;46559;-73
2022/06/26 08:51:39;;;;;;;;;4.00;3.00;;;;;20.93;66.50;101108.66;4979092;28;45308;-73
2022/06/26 08:54:06;;;;;;;;;3.33;3.33;;;;;20.97;66.30;101100.91;4979178;28;45179;-73
2022/06/26 08:56:32;;;;;;;;;4.33;4.33;;;;;21.00;66.27;101101.25;4974390;28;46517;-73
2022/06/26 08:58:58;;;;;;;;;3.00;3.00;;;;;20.99;64.98;101096.94;4971853;28;45331;-74
2022/06/26 09:01:23;;;;;;;;;5.00;4.00;;;;;21.01;65.50;101110.19;4979008;28;45415;-73
2022/06/26 09:03:49;;;;;;;;;4.00;3.33;;;;;20.94;65.14;101105.75;4976501;28;45484;-74
2022/06/26 09:06:14;;;;;;;;;4.67;4.00;;;;;20.97;64.45;101095.50;4991067;28;45527;-74
2022/06/26 09:08:44;;;;;;;;;4.00;4.00;;;;;21.04;64.82;101097.03;4979313;28;45942;-75
2022/06/26 09:11:10;;;;;;;;;4.67;4.67;;;;;21.13;65.44;101096.69;4982485;28;45338;-74
2022/06/26 09:13:37;;;;;;;;;6.00;5.00;;;;;21.20;65.19;101102.78;4981018;28;45289;-73
2022/06/26 09:16:03;;;;;;;;;5.00;5.00;;;;;21.26;65.09;101098.31;4985656;28;45422;-73
2022/06/26 09:18:34;;;;;;;;;6.67;5.67;;;;;21.33;65.09;101103.59;4984723;28;46380;-74
2022/06/26 09:20:59;;;;;;;;;3.00;3.00;;;;;21.41;64.25;101089.69;4978507;28;45547;-74
2022/06/26 09:23:25;;;;;;;;;4.00;4.00;;;;;21.48;63.91;101092.25;4979618;28;45778;-74
2022/06/26 09:25:50;;;;;;;;;2.33;2.33;;;;;21.53;61.82;101081.56;4981502;28;45313;-74
2022/06/26 09:28:20;;;;;;;;;3.33;3.33;;;;;21.49;60.70;101083.91;4980282;28;46551;-73
2022/06/26 09:30:51;;;;;;;;;4.00;4.00;;;;;21.49;61.43;101083.91;4979107;28;45529;-74
2022/06/26 09:33:28;;;;;;;;;2.67;2.67;;;;;21.51;61.98;101075.53;4979492;28;45414;-74
2022/06/26 09:35:55;;;;;;;;;4.67;4.67;;;;;21.52;61.33;101078.00;4962804;28;47213;-73
2022/06/26 09:38:31;;;;;;;;;5.33;4.00;;;;;21.56;61.55;101084.59;4990022;28;47557;-74
2022/06/26 09:40:59;;;;;;;;;5.00;5.00;;;;;21.60;62.69;101084.94;4980768;28;45317;-75
2022/06/26 09:43:28;;;;;;;;;3.67;3.33;;;;;21.67;61.91;101082.09;4981765;28;45478;-74
2022/06/26 09:45:55;;;;;;;;;4.00;4.00;;;;;21.71;62.29;101077.84;4981538;28;45589;-73
2022/06/26 09:48:24;;;;;;;;;3.00;3.00;;;;;21.75;62.71;101075.47;4982041;28;45332;-75
2022/06/26 09:50:50;;;;;;;;;3.00;3.00;;;;;21.82;61.16;101078.91;4981567;28;45321;-75
2022/06/26 09:53:16;;;;;;;;;3.67;2.33;;;;;21.95;60.74;101085.88;4977841;28;45342;-75
2022/06/26 09:55:42;;;;;;;;;5.67;3.00;;;;;21.99;59.74;101087.03;4977295;28;47321;-74
2022/06/26 09:58:08;;;;;;;;;5.33;5.00;;;;;22.01;59.99;101084.91;4981248;28;46198;-75
2022/06/26 10:00:35;;;;;;;;;7.00;4.00;;;;;21.98;59.84;101090.81;4982835;28;45559;-75
2022/06/26 10:06:33;;;;;;;;;4.00;4.00;;;;;22.05;60.62;101091.47;4980976;28;46722;-74
2022/06/26 10:08:35;;;;;;;;;4.00;4.00;;;;;22.19;59.50;101088.47;4977933;28;45438;-75
2022/06/26 10:11:01;;;;;;;;;5.33;4.33;;;;;22.30;59.88;101094.88;4980593;28;46074;-75
2022/06/26 10:13:29;;;;;;;;;3.00;3.00;;;;;22.36;59.13;101087.66;4981049;28;45321;-75
2022/06/26 10:16:17;;;;;;;;;5.33;5.33;;;;;22.49;58.80;101087.34;4983683;28;45580;-75
2022/06/26 10:19:20;;;;;;;;;3.33;2.33;;;;;22.55;58.39;101080.13;4984819;28;45540;-76
2022/06/26 10:21:46;;;;;;;;;3.00;3.00;;;;;22.63;59.06;101084.31;4975737;28;45413;-77
2022/06/26 10:24:12;;;;;;;;;4.67;4.67;;;;;22.70;59.25;101079.56;4981243;28;45443;-75
2022/06/26 10:26:37;;;;;;;;;4.00;4.00;;;;;22.75;57.67;101081.53;4980685;28;45410;-75
2022/06/26 10:29:08;;;;;;;;;5.00;5.00;;;;;22.73;57.08;101072.81;4980956;28;45383;-74
2022/06/26 10:31:49;;;;;;;;;3.00;2.33;;;;;22.75;56.46;101076.09;4980506;28;45213;-74
2022/06/26 10:34:23;;;;;;;;;6.67;5.00;;;;;22.79;55.73;101080.78;4980840;28;45330;-74
2022/06/26 10:37:06;;;;;;;;;3.00;2.67;;;;;22.86;56.72;101072.47;4980969;28;45418;-76
2022/06/26 10:39:45;;;;;;;;;2.00;2.00;;;;;23.00;55.94;101082.94;4979452;28;48192;-75
2022/06/26 10:45:06;;;;;;;;;3.00;2.00;;;;;23.14;55.53;101078.00;4979692;28;45367;-74
2022/06/26 10:48:17;;;;;;;;;3.33;3.33;;;;;23.28;55.07;101087.38;4980934;28;45423;-75
2022/06/26 10:50:45;;;;;;;;;5.67;5.00;;;;;23.45;54.90;101078.41;4956969;28;46920;-74
2022/06/26 10:53:25;;;;;;;;;2.67;2.67;;;;;23.65;53.62;101077.00;4980533;28;45402;-73
2022/06/26 10:55:54;;;;;;;;;1.00;1.00;;;;;23.85;50.64;101073.66;4976632;28;45385;-73
2022/06/26 10:58:21;;;;;;;;;1.33;0.67;;;;;23.93;51.24;101084.06;4974183;28;45516;-74
2022/06/26 11:00:48;;;;;;;;;2.00;1.33;;;;;24.03;51.19;101072.47;4980426;28;45296;-74
2022/06/26 11:03:18;;;;;;;;;3.33;1.67;;;;;24.16;50.03;101071.28;4980594;28;45284;-74
2022/06/26 11:06:09;;;;;;;;;2.33;2.33;;;;;24.33;51.68;101075.75;4980488;28;45396;-73
2022/06/26 11:08:36;;;;;;;;;3.00;2.33;;;;;24.45;51.08;101070.97;4980037;28;45408;-74
2022/06/26 11:11:04;;;;;;;;;4.00;4.00;;;;;24.54;51.85;101059.63;4980164;28;46648;-75
2022/06/26 11:13:30;;;;;;;;;2.00;2.00;;;;;24.62;52.27;101059.13;4976077;28;45798;-73
2022/06/26 11:15:56;;;;;;;;;4.33;4.33;;;;;24.68;50.81;101062.69;4981507;28;45350;-75
2022/06/26 11:18:21;;;;;;;;;5.00;3.00;;;;;24.64;52.12;101065.13;4963056;28;45917;-74
2022/06/26 11:20:51;;;;;;;;;3.00;3.00;;;;;24.75;51.44;101055.13;4972645;28;46280;-73
2022/06/26 11:23:24;;;;;;;;;1.67;1.67;;;;;24.83;51.15;101045.66;4979956;28;45320;-73
2022/06/26 11:25:54;;;;;;;;;3.00;2.00;;;;;24.97;50.91;101040.59;4980452;28;45478;-74
2022/06/26 11:28:20;;;;;;;;;4.00;3.00;;;;;25.22;51.04;101047.22;4979472;28;45335;-75
2022/06/26 11:30:46;;;;;;;;;2.00;2.00;;;;;25.41;50.34;101044.03;4978732;28;47160;-74
2022/06/26 11:33:13;;;;;;;;;3.00;3.00;;;;;25.49;49.57;101053.56;4980124;28;45276;-74
2022/06/26 11:35:40;;;;;;;;;2.33;2.33;;;;;25.54;49.96;101057.13;4978907;28;45284;-74